Time;durP1;ratioP1;P1;durP2;ratioP2;P2;SDS_P1;SDS_P2;PMS_P1;PMS_P2;Temp;Humidity;BMP_temperature;BMP_pressure;BME280_temperature;BME280_humidity;BME280_pressure;Samples;Min_cycle;Max_cycle;Signal;HPM_P1;HPM_P2
2024/02/04 00:01:14;0.00;0.00;0.62;0.00;0.00;0.62;3.80;2.63;;;22.00;27.10;;;;;;2259175;61;20484;-61
2024/02/04 00:04:00;0.00;0.00;0.62;0.00;0.00;0.62;3.00;2.30;;;22.00;27.10;;;;;;2258997;61;20611;-60
2024/02/04 00:06:44;0.00;0.00;0.62;0.00;0.00;0.62;2.83;1.90;;;22.00;27.10;;;;;;2259353;61;20388;-58
2024/02/04 00:09:29;0.00;0.00;0.62;0.00;0.00;0.62;3.60;2.10;;;22.00;27.10;;;;;;2259016;61;20475;-62
2024/02/04 00:12:13;0.00;0.00;0.62;0.00;0.00;0.62;2.60;2.00;;;22.00;27.10;;;;;;2259608;61;20443;-59
2024/02/04 00:14:58;0.00;0.00;0.62;0.00;0.00;0.62;3.40;2.30;;;22.00;27.10;;;;;;2259338;61;20384;-62
2024/02/04 00:17:43;0.00;0.00;0.62;0.00;0.00;0.62;3.20;2.20;;;22.00;27.00;;;;;;2259081;61;20500;-59
2024/02/04 00:20:29;0.00;0.00;0.62;0.00;0.00;0.62;3.30;2.10;;;22.00;27.00;;;;;;2260127;61;20361;-62
2024/02/04 00:23:14;0.00;0.00;0.62;0.00;0.00;0.62;2.93;2.40;;;22.00;27.00;;;;;;2259611;61;20451;-61
2024/02/04 00:25:58;0.00;0.00;0.62;0.00;0.00;0.62;3.47;2.17;;;22.00;27.00;;;;;;2263575;61;20886;-59
2024/02/04 00:28:43;0.00;0.00;0.62;0.00;0.00;0.62;3.97;2.40;;;22.00;27.00;;;;;;2264213;61;20368;-63
2024/02/04 00:31:28;0.00;0.00;0.62;0.00;0.00;0.62;2.77;2.10;;;22.00;27.00;;;;;;2263786;61;20414;-61
2024/02/04 00:34:13;0.00;0.00;0.62;0.00;0.00;0.62;3.40;2.27;;;22.00;27.00;;;;;;2265278;61;20938;-61
2024/02/04 00:37:00;0.00;0.00;0.62;0.00;0.00;0.62;3.00;2.00;;;22.00;27.00;;;;;;2261154;61;20876;-61
2024/02/04 00:39:44;0.00;0.00;0.62;0.00;0.00;0.62;3.20;2.37;;;22.00;27.00;;;;;;2263749;61;20426;-61
2024/02/04 00:42:29;0.00;0.00;0.62;0.00;0.00;0.62;3.17;2.50;;;22.00;27.00;;;;;;2260942;61;20810;-58
2024/02/04 00:45:14;0.00;0.00;0.62;0.00;0.00;0.62;4.10;2.47;;;22.00;27.00;;;;;;2264141;61;20449;-62
2024/02/04 00:47:59;0.00;0.00;0.62;0.00;0.00;0.62;6.23;2.80;;;22.00;27.00;;;;;;2260749;61;20405;-58
2024/02/04 00:50:43;0.00;0.00;0.62;0.00;0.00;0.62;3.43;2.13;;;22.00;27.00;;;;;;2260001;61;20349;-58
2024/02/04 00:53:33;0.00;0.00;0.62;0.00;0.00;0.62;3.37;2.23;;;22.00;27.00;;;;;;2259817;61;20382;-58
2024/02/04 00:56:18;0.00;0.00;0.62;0.00;0.00;0.62;3.60;2.40;;;22.00;27.00;;;;;;2496704;53;20434;-60
2024/02/04 00:59:02;0.00;0.00;0.62;0.00;0.00;0.62;3.63;2.70;;;22.00;27.00;;;;;;2259743;61;20357;-62
2024/02/04 01:01:47;0.00;0.00;0.62;0.00;0.00;0.62;4.23;2.53;;;22.00;27.00;;;;;;2260523;61;20372;-60
2024/02/04 01:04:31;0.00;0.00;0.62;0.00;0.00;0.62;3.67;2.40;;;22.00;27.00;;;;;;2263899;61;20400;-59
2024/02/04 01:07:16;0.00;0.00;0.62;0.00;0.00;0.62;3.10;2.23;;;22.00;27.00;;;;;;2260578;61;20356;-60
2024/02/04 01:10:01;0.00;0.00;0.62;0.00;0.00;0.62;2.80;2.37;;;22.00;26.90;;;;;;2260604;61;20822;-63
2024/02/04 01:12:46;0.00;0.00;0.62;0.00;0.00;0.62;2.63;2.00;;;22.00;26.90;;;;;;2263872;61;20956;-60
2024/02/04 01:15:31;0.00;0.00;0.62;0.00;0.00;0.62;3.07;2.20;;;22.00;26.90;;;;;;2260623;61;20418;-58
2024/02/04 01:18:15;0.00;0.00;0.62;0.00;0.00;0.62;2.73;2.10;;;22.00;26.90;;;;;;2691933;45;20373;-58
2024/02/04 01:21:00;0.00;0.00;0.62;0.00;0.00;0.62;3.03;2.10;;;22.00;26.90;;;;;;2260091;61;20384;-62
2024/02/04 01:23:45;0.00;0.00;0.62;0.00;0.00;0.62;3.50;2.23;;;22.00;26.90;;;;;;2260371;61;20395;-63
2024/02/04 01:26:31;0.00;0.00;0.62;0.00;0.00;0.62;3.30;2.50;;;22.00;26.90;;;;;;2264228;61;20380;-59
2024/02/04 01:29:16;0.00;0.00;0.62;0.00;0.00;0.62;2.70;2.20;;;22.00;26.90;;;;;;2263796;61;20406;-58
2024/02/04 01:32:01;0.00;0.00;0.62;0.00;0.00;0.62;2.93;2.13;;;22.00;26.90;;;;;;2261185;61;20372;-61
2024/02/04 01:34:45;0.00;0.00;0.62;0.00;0.00;0.62;3.53;2.40;;;22.00;26.90;;;;;;2259776;61;20369;-60
2024/02/04 01:37:30;0.00;0.00;0.62;0.00;0.00;0.62;2.63;2.03;;;22.00;26.90;;;;;;2256590;61;20875;-61
2024/02/04 01:40:15;0.00;0.00;0.62;0.00;0.00;0.62;3.33;2.33;;;22.00;26.90;;;;;;2263776;61;20695;-58
2024/02/04 01:43:01;0.00;0.00;0.62;0.00;0.00;0.62;3.13;2.00;;;22.00;26.90;;;;;;2260635;61;20391;-59
2024/02/04 01:45:46;0.00;0.00;0.62;0.00;0.00;0.62;3.30;2.00;;;22.00;26.90;;;;;;2262781;61;20368;-61
2024/02/04 01:48:31;0.00;0.00;0.62;0.00;0.00;0.62;3.40;2.23;;;22.00;26.90;;;;;;2260043;61;20915;-59
2024/02/04 01:51:17;0.00;0.00;0.62;0.00;0.00;0.62;3.10;2.17;;;22.00;26.90;;;;;;2256679;61;20365;-61
2024/02/04 01:54:02;0.00;0.00;0.62;0.00;0.00;0.62;2.70;2.00;;;22.00;27.40;;;;;;2261670;61;20784;-60
2024/02/04 01:56:49;0.00;0.00;0.62;0.00;0.00;0.62;2.87;2.20;;;22.00;26.90;;;;;;2263979;61;20423;-59
2024/02/04 01:59:35;0.00;0.00;0.62;0.00;0.00;0.62;2.60;1.93;;;22.00;26.80;;;;;;2260626;61;20784;-62
2024/02/04 02:02:20;0.00;0.00;0.62;0.00;0.00;0.62;3.10;1.93;;;22.00;26.80;;;;;;2259693;61;20414;-65
2024/02/04 02:05:06;0.00;0.00;0.62;0.00;0.00;0.62;2.60;1.93;;;22.00;26.80;;;;;;2262948;61;20356;-61
2024/02/04 02:07:51;0.00;0.00;0.62;0.00;0.00;0.62;3.20;2.27;;;22.00;26.80;;;;;;2256389;61;20375;-60
2024/02/04 02:10:35;0.00;0.00;0.62;0.00;0.00;0.62;3.43;2.30;;;22.00;26.80;;;;;;2604966;45;20365;-62
2024/02/04 02:13:26;0.00;0.00;0.62;0.00;0.00;0.62;2.40;1.97;;;22.00;26.80;;;;;;2259715;61;20476;-61
2024/02/04 02:16:19;0.00;0.00;0.62;0.00;0.00;0.62;3.00;2.10;;;22.00;26.80;;;;;;2260595;61;20816;-62
2024/02/04 02:19:18;0.00;0.00;0.62;0.00;0.00;0.62;3.47;2.20;;;22.00;26.80;;;;;;2256768;61;20373;-61
2024/02/04 02:22:18;0.00;0.00;0.62;0.00;0.00;0.62;3.17;2.10;;;22.00;26.80;;;;;;2259721;61;20938;-59
2024/02/04 02:25:07;0.00;0.00;0.62;0.00;0.00;0.62;3.70;2.13;;;22.00;26.80;;;;;;2622507;45;20788;-57
2024/02/04 02:27:52;0.00;0.00;0.62;0.00;0.00;0.62;3.17;2.00;;;22.00;26.80;;;;;;2260760;61;20369;-61
2024/02/04 02:30:36;0.00;0.00;0.62;0.00;0.00;0.62;3.03;2.13;;;22.00;26.80;;;;;;2261853;61;20773;-62
2024/02/04 02:33:21;0.00;0.00;0.62;0.00;0.00;0.62;3.23;2.27;;;22.00;26.80;;;;;;2260542;61;20372;-61
2024/02/04 02:36:13;0.00;0.00;0.62;0.00;0.00;0.62;3.40;2.20;;;22.00;26.80;;;;;;2263956;61;20451;-62
2024/02/04 02:39:05;0.00;0.00;0.62;0.00;0.00;0.62;3.90;2.30;;;22.00;26.80;;;;;;2260476;61;20967;-62
2024/02/04 02:41:55;0.00;0.00;0.62;0.00;0.00;0.62;3.57;2.30;;;22.00;27.20;;;;;;2259865;61;20365;-59
2024/02/04 02:44:41;0.00;0.00;0.62;0.00;0.00;0.62;3.30;2.00;;;22.00;26.80;;;;;;2259153;61;20931;-62
2024/02/04 02:47:28;0.00;0.00;0.62;0.00;0.00;0.62;2.63;1.80;;;22.00;26.80;;;;;;2259764;61;20419;-61
2024/02/04 02:50:13;0.00;0.00;0.62;0.00;0.00;0.62;2.90;2.00;;;22.00;26.80;;;;;;2259924;61;20364;-60
2024/02/04 02:52:59;0.00;0.00;0.62;0.00;0.00;0.62;3.10;1.50;;;22.00;26.80;;;;;;2259245;61;20396;-58
2024/02/04 02:55:46;0.00;0.00;0.62;0.00;0.00;0.62;3.40;2.10;;;22.00;26.80;;;;;;2259797;61;20790;-58
2024/02/04 02:58:32;0.00;0.00;0.62;0.00;0.00;0.62;3.47;1.97;;;22.00;26.80;;;;;;2256511;61;20934;-61
2024/02/04 03:01:17;0.00;0.00;0.62;0.00;0.00;0.62;2.87;2.00;;;22.00;26.80;;;;;;2262557;61;20368;-61
2024/02/04 03:04:01;0.00;0.00;0.62;0.00;0.00;0.62;2.87;1.93;;;22.00;26.80;;;;;;2263511;61;20467;-57
2024/02/04 03:06:46;0.00;0.00;0.62;0.00;0.00;0.62;3.30;1.97;;;22.00;26.80;;;;;;2263785;61;20413;-59
2024/02/04 03:09:30;0.00;0.00;0.62;0.00;0.00;0.62;2.83;2.00;;;22.00;26.80;;;;;;2536934;45;20384;-58
2024/02/04 03:12:15;0.00;0.00;0.62;0.00;0.00;0.62;2.77;1.90;;;22.00;26.80;;;;;;2259894;61;20447;-60
2024/02/04 03:15:01;0.00;0.00;0.62;0.00;0.00;0.62;3.00;1.80;;;22.00;26.70;;;;;;2257459;61;20363;-61
2024/02/04 03:17:45;0.00;0.00;0.62;0.00;0.00;0.62;2.37;1.67;;;22.00;26.80;;;;;;2263777;61;20443;-57
2024/02/04 03:20:30;0.00;0.00;0.62;0.00;0.00;0.62;2.37;1.50;;;22.00;26.70;;;;;;2263900;61;20371;-58
2024/02/04 03:23:15;0.00;0.00;0.62;0.00;0.00;0.62;2.50;1.83;;;22.00;26.70;;;;;;2259824;61;20384;-61
2024/02/04 03:26:00;0.00;0.00;0.62;0.00;0.00;0.62;3.67;2.10;;;22.00;26.70;;;;;;2260493;61;20417;-58
2024/02/04 03:28:44;0.00;0.00;0.62;0.00;0.00;0.62;2.97;1.80;;;22.00;26.70;;;;;;2263765;61;20864;-59
2024/02/04 03:31:31;0.00;0.00;0.62;0.00;0.00;0.62;2.43;1.73;;;22.00;26.70;;;;;;2649703;45;20369;-59
2024/02/04 03:34:15;0.00;0.00;0.62;0.00;0.00;0.62;2.97;1.93;;;22.00;26.70;;;;;;2259670;61;20442;-58
2024/02/04 03:37:00;0.00;0.00;0.62;0.00;0.00;0.62;1.90;1.50;;;22.00;26.70;;;;;;2259278;61;20393;-59
2024/02/04 03:39:45;0.00;0.00;0.62;0.00;0.00;0.62;3.00;1.90;;;22.00;26.70;;;;;;2259213;61;20418;-58
2024/02/04 03:42:30;0.00;0.00;0.62;0.00;0.00;0.62;2.67;1.37;;;22.00;26.70;;;;;;2260229;61;20372;-59
2024/02/04 03:45:15;0.00;0.00;0.62;0.00;0.00;0.62;3.63;1.70;;;22.00;27.20;;;;;;2257379;61;20360;-61
2024/02/04 03:48:01;0.00;0.00;0.62;0.00;0.00;0.62;2.60;1.70;;;22.00;26.70;;;;;;2256389;61;20361;-61
2024/02/04 03:50:45;0.00;0.00;0.62;0.00;0.00;0.62;2.97;2.00;;;22.00;26.70;;;;;;2259597;61;20373;-62
2024/02/04 03:53:30;0.00;0.00;0.62;0.00;0.00;0.62;2.73;1.63;;;22.00;26.70;;;;;;2262795;61;20427;-61
2024/02/04 03:56:14;0.00;0.00;0.62;0.00;0.00;0.62;3.03;2.37;;;22.00;26.70;;;;;;2261234;61;20363;-61
2024/02/04 03:58:59;0.00;0.00;0.62;0.00;0.00;0.62;2.83;1.47;;;22.00;26.70;;;;;;2260780;61;20361;-61
2024/02/04 04:01:48;0.00;0.00;0.62;0.00;0.00;0.62;2.23;1.40;;;22.00;26.70;;;;;;2264277;61;20938;-61
2024/02/04 04:04:34;0.00;0.00;0.62;0.00;0.00;0.62;2.40;1.30;;;22.00;26.70;;;;;;2264191;61;20478;-61
2024/02/04 04:07:18;0.00;0.00;0.62;0.00;0.00;0.62;2.50;1.87;;;22.00;26.70;;;;;;2258453;61;20777;-57
2024/02/04 04:10:04;0.00;0.00;0.62;0.00;0.00;0.62;2.33;1.63;;;22.00;26.70;;;;;;2260242;61;20415;-60
2024/02/04 04:12:48;0.00;0.00;0.62;0.00;0.00;0.62;3.00;1.77;;;22.00;26.70;;;;;;2260002;61;20388;-59
2024/02/04 04:15:33;0.00;0.00;0.62;0.00;0.00;0.62;2.50;1.43;;;22.00;26.70;;;;;;2259740;61;20404;-59
2024/02/04 04:18:18;0.00;0.00;0.62;0.00;0.00;0.62;2.17;1.50;;;22.00;26.70;;;;;;2260344;61;20361;-62
2024/02/04 04:21:04;0.00;0.00;0.62;0.00;0.00;0.62;3.27;1.63;;;22.00;26.70;;;;;;2259824;61;20369;-60
2024/02/04 04:23:49;0.00;0.00;0.62;0.00;0.00;0.62;3.87;2.10;;;22.00;26.70;;;;;;2260510;61;20428;-59
2024/02/04 04:26:33;0.00;0.00;0.62;0.00;0.00;0.62;2.13;1.23;;;22.00;26.70;;;;;;2260501;61;20408;-60
2024/02/04 04:29:18;0.00;0.00;0.62;0.00;0.00;0.62;2.10;1.50;;;22.00;26.60;;;;;;2259631;61;20462;-60
2024/02/04 04:32:04;0.00;0.00;0.62;0.00;0.00;0.62;2.23;1.40;;;22.00;26.70;;;;;;2260221;61;20392;-60
2024/02/04 04:34:49;0.00;0.00;0.62;0.00;0.00;0.62;2.13;1.53;;;22.00;26.70;;;;;;2259987;61;20432;-58
2024/02/04 04:37:35;0.00;0.00;0.62;0.00;0.00;0.62;3.00;1.50;;;22.00;26.60;;;;;;2259769;61;20365;-59
2024/02/04 04:40:19;0.00;0.00;0.62;0.00;0.00;0.62;2.30;1.40;;;22.00;26.60;;;;;;2260270;61;20369;-58
2024/02/04 04:43:04;0.00;0.00;0.62;0.00;0.00;0.62;2.83;1.60;;;22.00;26.60;;;;;;2259540;61;20962;-62
2024/02/04 04:45:48;0.00;0.00;0.62;0.00;0.00;0.62;3.07;1.40;;;22.00;27.10;;;;;;2263902;61;20372;-62
2024/02/04 04:48:33;0.00;0.00;0.62;0.00;0.00;0.62;2.80;1.40;;;22.00;26.60;;;;;;2260916;61;20406;-60
2024/02/04 04:51:17;0.00;0.00;0.62;0.00;0.00;0.62;2.10;1.40;;;22.00;26.60;;;;;;2262146;61;20372;-56
2024/02/04 04:54:03;0.00;0.00;0.62;0.00;0.00;0.62;2.80;1.73;;;22.00;26.70;;;;;;2259670;61;20396;-58
2024/02/04 04:56:48;0.00;0.00;0.62;0.00;0.00;0.62;2.13;1.33;;;22.00;26.60;;;;;;2260397;61;20572;-58
2024/02/04 04:59:33;0.00;0.00;0.62;0.00;0.00;0.62;2.47;1.50;;;22.00;26.60;;;;;;2263080;61;20452;-60
2024/02/04 05:02:17;0.00;0.00;0.62;0.00;0.00;0.62;1.90;1.17;;;22.00;26.60;;;;;;2264033;61;20364;-59
2024/02/04 05:05:02;0.00;0.00;0.62;0.00;0.00;0.62;2.27;1.30;;;22.00;26.60;;;;;;2264263;61;20364;-57
2024/02/04 05:07:47;0.00;0.00;0.62;0.00;0.00;0.62;1.80;1.13;;;22.00;26.60;;;;;;2602403;45;20355;-63
2024/02/04 05:10:32;0.00;0.00;0.62;0.00;0.00;0.62;2.00;1.30;;;22.00;26.60;;;;;;2264045;61;20828;-61
2024/02/04 05:13:17;0.00;0.00;0.62;0.00;0.00;0.62;1.70;1.10;;;22.00;26.60;;;;;;2262502;61;20393;-61
2024/02/04 05:16:02;0.00;0.00;0.62;0.00;0.00;0.62;3.50;1.33;;;22.00;26.60;;;;;;2260013;61;20896;-58
2024/02/04 05:18:46;0.00;0.00;0.62;0.00;0.00;0.62;2.43;1.53;;;22.00;26.60;;;;;;2260240;61;20383;-63
2024/02/04 05:21:31;0.00;0.00;0.62;0.00;0.00;0.62;1.80;1.10;;;22.00;26.60;;;;;;2259676;61;20424;-62
2024/02/04 05:24:15;0.00;0.00;0.62;0.00;0.00;0.62;2.30;1.50;;;22.00;26.60;;;;;;2260541;61;20372;-62
2024/02/04 05:27:01;0.00;0.00;0.62;0.00;0.00;0.62;2.00;1.40;;;22.00;26.60;;;;;;2260230;61;20478;-59
2024/02/04 05:29:46;0.00;0.00;0.62;0.00;0.00;0.62;2.53;1.30;;;22.00;26.60;;;;;;2259802;61;20897;-58
2024/02/04 05:32:30;0.00;0.00;0.62;0.00;0.00;0.62;1.80;1.17;;;22.00;26.60;;;;;;2260184;61;20364;-59
2024/02/04 05:35:15;0.00;0.00;0.62;0.00;0.00;0.62;1.83;1.30;;;22.00;26.60;;;;;;2259915;61;20781;-60
2024/02/04 05:37:59;0.00;0.00;0.62;0.00;0.00;0.62;2.00;1.37;;;22.00;26.60;;;;;;2259948;61;20442;-63
2024/02/04 05:40:44;0.00;0.00;0.62;0.00;0.00;0.62;1.87;1.10;;;22.00;26.60;;;;;;2260218;61;20357;-59
2024/02/04 05:43:30;0.00;0.00;0.62;0.00;0.00;0.62;2.10;1.30;;;22.00;26.60;;;;;;2259469;61;20385;-59
2024/02/04 05:46:15;0.00;0.00;0.62;0.00;0.00;0.62;2.10;1.27;;;22.00;26.60;;;;;;2259997;61;20794;-59
2024/02/04 05:48:59;0.00;0.00;0.62;0.00;0.00;0.62;2.33;1.43;;;22.00;27.10;;;;;;2260135;61;20368;-58
2024/02/04 05:51:44;0.00;0.00;0.62;0.00;0.00;0.62;2.20;1.20;;;22.00;26.60;;;;;;2259647;61;20503;-61
2024/02/04 05:54:28;0.00;0.00;0.62;0.00;0.00;0.62;1.80;1.30;;;22.00;26.60;;;;;;2259654;61;20943;-59
2024/02/04 05:57:13;0.00;0.00;0.62;0.00;0.00;0.62;2.00;1.33;;;22.00;26.60;;;;;;2260084;61;20951;-58
2024/02/04 05:59:59;0.00;0.00;0.62;0.00;0.00;0.62;2.37;1.20;;;22.00;26.60;;;;;;2263854;61;20437;-58
2024/02/04 06:02:44;0.00;0.00;0.62;0.00;0.00;0.62;1.70;0.90;;;22.00;26.60;;;;;;2263753;61;20463;-61
2024/02/04 06:05:28;0.00;0.00;0.62;0.00;0.00;0.62;1.70;1.13;;;22.00;26.60;;;;;;2261723;61;20408;-58
2024/02/04 06:08:14;0.00;0.00;0.62;0.00;0.00;0.62;2.20;1.23;;;22.00;26.60;;;;;;2259833;61;20363;-62
2024/02/04 06:10:58;0.00;0.00;0.62;0.00;0.00;0.62;2.33;1.23;;;22.00;26.60;;;;;;2259675;61;20411;-61
2024/02/04 06:13:44;0.00;0.00;0.62;0.00;0.00;0.62;1.87;1.20;;;22.00;26.50;;;;;;2259201;61;20991;-60
2024/02/04 06:16:30;0.00;0.00;0.62;0.00;0.00;0.62;2.47;1.20;;;22.00;26.50;;;;;;2259819;61;20369;-59
2024/02/04 06:19:15;0.00;0.00;0.62;0.00;0.00;0.62;2.17;1.00;;;22.00;26.50;;;;;;2260675;61;20900;-63
2024/02/04 06:21:59;0.00;0.00;0.62;0.00;0.00;0.62;2.40;1.33;;;22.00;26.50;;;;;;2263782;61;20414;-61
2024/02/04 06:24:44;0.00;0.00;0.62;0.00;0.00;0.62;2.10;1.27;;;22.00;26.50;;;;;;2263837;61;21061;-60
2024/02/04 06:27:29;0.00;0.00;0.62;0.00;0.00;0.62;1.53;0.87;;;22.00;26.50;;;;;;2263469;61;20457;-59
2024/02/04 06:30:14;0.00;0.00;0.62;0.00;0.00;0.62;1.80;1.00;;;22.00;26.50;;;;;;2263724;61;20360;-58
2024/02/04 06:33:00;0.00;0.00;0.62;0.00;0.00;0.62;2.27;1.20;;;22.00;26.50;;;;;;2263798;61;20438;-59
2024/02/04 06:35:46;0.00;0.00;0.62;0.00;0.00;0.62;1.57;1.00;;;22.00;26.50;;;;;;2263478;61;20433;-59
2024/02/04 06:38:30;0.00;0.00;0.62;0.00;0.00;0.62;1.60;0.90;;;22.00;26.50;;;;;;2263911;61;20396;-62
2024/02/04 06:41:15;0.00;0.00;0.62;0.00;0.00;0.62;1.80;1.10;;;22.00;26.50;;;;;;2263876;61;20450;-60
2024/02/04 06:43:59;0.00;0.00;0.62;0.00;0.00;0.62;1.87;1.13;;;22.00;26.50;;;;;;2551227;45;20389;-62
2024/02/04 06:46:44;0.00;0.00;0.62;0.00;0.00;0.62;1.60;1.10;;;22.00;26.50;;;;;;2259805;61;20507;-58
2024/02/04 06:49:30;0.00;0.00;0.62;0.00;0.00;0.62;2.00;1.00;;;22.00;27.00;;;;;;2260565;61;20368;-62
2024/02/04 06:52:15;0.00;0.00;0.62;0.00;0.00;0.62;1.90;1.10;;;22.00;26.50;;;;;;2263800;61;20786;-59
2024/02/04 06:54:59;0.00;0.00;0.62;0.00;0.00;0.62;1.90;1.00;;;22.00;26.50;;;;;;2263784;61;20925;-59
2024/02/04 06:57:44;0.00;0.00;0.62;0.00;0.00;0.62;1.97;1.10;;;22.00;26.40;;;;;;2260752;61;20470;-59
2024/02/04 07:00:29;0.00;0.00;0.62;0.00;0.00;0.62;1.70;0.90;;;22.00;26.50;;;;;;2259955;61;20457;-62
2024/02/04 07:03:14;0.00;0.00;0.62;0.00;0.00;0.62;1.70;1.07;;;22.00;26.40;;;;;;2259317;61;20400;-58
2024/02/04 07:06:00;0.00;0.00;0.62;0.00;0.00;0.62;2.13;0.77;;;22.00;26.50;;;;;;2263482;61;20438;-59
2024/02/04 07:08:45;0.00;0.00;0.62;0.00;0.00;0.62;1.80;0.90;;;22.00;26.50;;;;;;2263858;61;20953;-59
2024/02/04 07:11:29;0.00;0.00;0.62;0.00;0.00;0.62;1.77;0.80;;;22.00;26.40;;;;;;2263150;61;20375;-59
2024/02/04 07:14:14;0.00;0.00;0.62;0.00;0.00;0.62;1.90;0.97;;;22.00;26.40;;;;;;2263476;61;20938;-59
2024/02/04 07:16:58;0.00;0.00;0.62;0.00;0.00;0.62;2.13;1.10;;;22.00;26.40;;;;;;2260553;61;20372;-59
2024/02/04 07:19:43;0.00;0.00;0.62;0.00;0.00;0.62;1.83;1.00;;;22.00;26.40;;;;;;2263389;61;20457;-57
2024/02/04 07:22:29;0.00;0.00;0.62;0.00;0.00;0.62;1.60;1.00;;;22.00;26.40;;;;;;2263547;61;20406;-60
2024/02/04 07:25:13;0.00;0.00;0.62;0.00;0.00;0.62;1.50;0.97;;;22.00;26.40;;;;;;2260478;61;20816;-62
2024/02/04 07:27:58;0.00;0.00;0.62;0.00;0.00;0.62;1.77;1.10;;;22.00;26.40;;;;;;2259585;61;20365;-59
2024/02/04 07:30:42;0.00;0.00;0.62;0.00;0.00;0.62;1.60;0.80;;;22.00;26.40;;;;;;2260484;61;20383;-57
2024/02/04 07:33:27;0.00;0.00;0.62;0.00;0.00;0.62;2.67;1.00;;;22.00;26.40;;;;;;2259773;61;20440;-60
2024/02/04 07:36:12;0.00;0.00;0.62;0.00;0.00;0.62;2.37;1.27;;;22.00;27.00;;;;;;2260205;61;20891;-59
2024/02/04 07:38:59;0.00;0.00;0.62;0.00;0.00;0.62;3.70;0.90;;;22.00;26.40;;;;;;2260430;61;20365;-57
2024/02/04 07:41:43;0.00;0.00;0.62;0.00;0.00;0.62;1.50;0.93;;;22.00;26.40;;;;;;2260142;61;20501;-62
2024/02/04 07:44:28;0.00;0.00;0.62;0.00;0.00;0.62;1.67;1.00;;;22.00;26.40;;;;;;2260109;61;20999;-59
2024/02/04 07:47:13;0.00;0.00;0.62;0.00;0.00;0.62;1.83;0.90;;;22.00;26.40;;;;;;2260401;61;20381;-59
2024/02/04 07:49:58;0.00;0.00;0.62;0.00;0.00;0.62;2.07;1.07;;;22.00;26.40;;;;;;2259844;61;20380;-62
2024/02/04 07:52:42;0.00;0.00;0.62;0.00;0.00;0.62;1.60;0.80;;;22.00;26.40;;;;;;2260487;61;20444;-62
2024/02/04 07:55:28;0.00;0.00;0.62;0.00;0.00;0.62;2.33;1.10;;;22.00;26.40;;;;;;2259882;61;20406;-61
2024/02/04 07:58:13;0.00;0.00;0.62;0.00;0.00;0.62;1.90;1.10;;;22.00;26.40;;;;;;2260338;61;20540;-58
2024/02/04 08:00:57;0.00;0.00;0.62;0.00;0.00;0.62;2.50;0.90;;;22.00;26.40;;;;;;2260436;61;20376;-58
2024/02/04 08:03:43;0.00;0.00;0.62;0.00;0.00;0.62;2.00;1.10;;;22.00;26.40;;;;;;2261229;61;20394;-58
2024/02/04 08:06:28;0.00;0.00;0.62;0.00;0.00;0.62;2.00;1.20;;;22.00;26.40;;;;;;2264244;61;20898;-62
2024/02/04 08:09:13;0.00;0.00;0.62;0.00;0.00;0.62;2.17;1.20;;;22.00;26.40;;;;;;2264559;61;20384;-59
2024/02/04 08:11:59;0.00;0.00;0.62;0.00;0.00;0.62;2.77;1.20;;;22.00;26.40;;;;;;2264235;61;20875;-62
2024/02/04 08:14:44;0.00;0.00;0.62;0.00;0.00;0.62;1.50;0.90;;;22.00;26.40;;;;;;2264644;61;20441;-58
2024/02/04 08:17:30;0.00;0.00;0.62;0.00;0.00;0.62;1.93;1.20;;;22.00;26.40;;;;;;2263554;61;20823;-60
2024/02/04 08:20:15;0.00;0.00;0.62;0.00;0.00;0.62;2.87;1.20;;;22.00;26.40;;;;;;2521579;53;20495;-62
2024/02/04 08:23:00;0.00;0.00;0.62;0.00;0.00;0.62;2.53;1.60;;;22.00;26.40;;;;;;2264117;61;20391;-59
2024/02/04 08:25:45;0.00;0.00;0.62;0.00;0.00;0.62;2.60;1.43;;;22.00;26.40;;;;;;2264076;61;20882;-58
2024/02/04 08:28:31;0.00;0.00;0.62;0.00;0.00;0.62;3.00;1.63;;;22.00;26.40;;;;;;2263969;61;20411;-58
2024/02/04 08:31:16;0.00;0.00;0.62;0.00;0.00;0.62;2.60;1.67;;;22.00;26.40;;;;;;2264518;61;20387;-61
2024/02/04 08:34:02;0.00;0.00;0.62;0.00;0.00;0.62;2.70;1.70;;;22.00;26.40;;;;;;2257673;61;20808;-59
2024/02/04 08:36:48;0.00;0.00;0.62;0.00;0.00;0.62;2.60;1.67;;;22.00;26.40;;;;;;2260298;61;20799;-60
2024/02/04 08:39:33;0.00;0.00;0.62;0.00;0.00;0.62;2.50;2.03;;;22.00;26.40;;;;;;2260164;61;20927;-58
2024/02/04 08:42:18;0.00;0.00;0.62;0.00;0.00;0.62;3.10;2.13;;;22.00;26.40;;;;;;2604530;45;20356;-58
2024/02/04 08:45:05;0.00;0.00;0.62;0.00;0.00;0.62;3.40;1.93;;;22.00;26.30;;;;;;2260192;61;20884;-58
2024/02/04 08:47:50;0.00;0.00;0.62;0.00;0.00;0.62;3.30;2.40;;;22.00;26.30;;;;;;2260781;61;20372;-60
2024/02/04 08:50:34;0.00;0.00;0.62;0.00;0.00;0.62;3.37;2.13;;;22.00;26.40;;;;;;2264167;61;20418;-57
2024/02/04 08:53:19;0.00;0.00;0.62;0.00;0.00;0.62;3.10;2.13;;;22.00;26.30;;;;;;2264195;61;20888;-60
2024/02/04 08:56:06;0.00;0.00;0.62;0.00;0.00;0.62;3.83;2.73;;;22.00;26.40;;;;;;2263734;61;20788;-60
2024/02/04 08:58:51;0.00;0.00;0.62;0.00;0.00;0.62;4.07;2.73;;;22.00;26.30;;;;;;2264339;61;20797;-58
2024/02/04 09:01:37;0.00;0.00;0.62;0.00;0.00;0.62;4.70;2.80;;;22.00;26.30;;;;;;2260940;61;20929;-59
2024/02/04 09:04:21;0.00;0.00;0.62;0.00;0.00;0.62;4.13;2.53;;;22.00;26.30;;;;;;2263539;61;20403;-61
2024/02/04 09:07:06;0.00;0.00;0.62;0.00;0.00;0.62;4.50;3.33;;;22.00;26.30;;;;;;2264317;61;20400;-58
2024/02/04 09:09:51;0.00;0.00;0.62;0.00;0.00;0.62;4.07;2.77;;;22.00;26.30;;;;;;2263039;61;20377;-55
2024/02/04 09:12:36;0.00;0.00;0.62;0.00;0.00;0.62;3.60;2.90;;;22.00;26.30;;;;;;2259825;61;20384;-60
2024/02/04 09:15:22;0.00;0.00;0.62;0.00;0.00;0.62;4.47;3.20;;;22.00;26.30;;;;;;2260402;61;20659;-57
2024/02/04 09:18:09;0.00;0.00;0.62;0.00;0.00;0.62;2.93;2.60;;;22.00;26.30;;;;;;2259880;61;20770;-58
2024/02/04 09:20:53;0.00;0.00;0.62;0.00;0.00;0.62;4.17;3.00;;;22.00;26.30;;;;;;2260145;61;20374;-63
2024/02/04 09:23:38;0.00;0.00;0.62;0.00;0.00;0.62;4.50;3.00;;;22.00;26.30;;;;;;2259697;61;20435;-61
2024/02/04 09:26:23;0.00;0.00;0.62;0.00;0.00;0.62;5.07;3.47;;;22.00;26.30;;;;;;2259845;61;20365;-61
2024/02/04 09:29:09;0.00;0.00;0.62;0.00;0.00;0.62;4.50;3.00;;;22.00;26.30;;;;;;2260028;61;20442;-60
2024/02/04 09:31:53;0.00;0.00;0.62;0.00;0.00;0.62;4.90;3.77;;;22.00;26.30;;;;;;2259767;61;20364;-59
2024/02/04 09:34:40;0.00;0.00;0.62;0.00;0.00;0.62;5.67;4.23;;;22.00;26.30;;;;;;2259874;61;20389;-58
2024/02/04 09:37:26;0.00;0.00;0.62;0.00;0.00;0.62;5.87;4.73;;;22.00;26.20;;;;;;2259803;61;20376;-58
2024/02/04 09:40:13;0.00;0.00;0.62;0.00;0.00;0.62;5.20;3.93;;;22.00;26.30;;;;;;2510551;45;20455;-58
2024/02/04 09:42:58;0.00;0.00;0.62;0.00;0.00;0.62;5.20;4.20;;;22.00;26.20;;;;;;2263968;61;20502;-57
2024/02/04 09:45:43;0.00;0.00;0.62;0.00;0.00;0.62;5.67;4.43;;;22.00;26.20;;;;;;2263737;61;20407;-57
2024/02/04 09:48:32;0.00;0.00;0.62;0.00;0.00;0.62;5.23;3.97;;;22.00;26.20;;;;;;2263633;61;20451;-64
2024/02/04 09:51:18;0.00;0.00;0.62;0.00;0.00;0.62;7.43;4.77;;;22.00;26.20;;;;;;2260721;61;20487;-61
2024/02/04 09:54:06;0.00;0.00;0.62;0.00;0.00;0.62;5.50;4.50;;;22.00;26.20;;;;;;2262863;61;20923;-58
2024/02/04 09:56:52;0.00;0.00;0.62;0.00;0.00;0.62;6.20;4.40;;;22.00;26.20;;;;;;2259789;61;20361;-59
2024/02/04 09:59:36;0.00;0.00;0.62;0.00;0.00;0.62;7.00;4.63;;;22.00;26.20;;;;;;2256700;61;20365;-59
2024/02/04 10:02:22;0.00;0.00;0.62;0.00;0.00;0.62;7.00;4.37;;;22.00;26.20;;;;;;2259106;61;20412;-60
2024/02/04 10:05:09;0.00;0.00;0.62;0.00;0.00;0.62;6.93;4.77;;;22.00;26.20;;;;;;2260080;61;20679;-59
2024/02/04 10:07:54;0.00;0.00;0.62;0.00;0.00;0.62;7.03;4.63;;;22.00;26.20;;;;;;2260748;61;20376;-57
2024/02/04 10:10:39;0.00;0.00;0.62;0.00;0.00;0.62;8.70;4.93;;;22.00;26.20;;;;;;2259649;61;20620;-59
2024/02/04 10:13:25;0.00;0.00;0.62;0.00;0.00;0.62;5.47;4.80;;;22.00;26.10;;;;;;2262841;61;20422;-58
2024/02/04 10:16:09;0.00;0.00;0.62;0.00;0.00;0.62;5.33;4.30;;;22.00;26.20;;;;;;2263424;61;20490;-60
2024/02/04 10:18:56;0.00;0.00;0.62;0.00;0.00;0.62;7.77;5.10;;;22.00;26.20;;;;;;2259576;61;20377;-59
2024/02/04 10:21:40;0.00;0.00;0.62;0.00;0.00;0.62;6.23;4.80;;;22.00;26.10;;;;;;2259859;61;20769;-58
2024/02/04 10:24:27;0.00;0.00;0.62;0.00;0.00;0.62;5.87;4.17;;;22.00;26.20;;;;;;2259360;61;20424;-60
2024/02/04 10:27:12;0.00;0.00;0.62;0.00;0.00;0.62;4.87;4.37;;;22.00;26.20;;;;;;2259779;61;20369;-60
2024/02/04 10:29:57;0.00;0.00;0.62;0.00;0.00;0.62;6.80;4.90;;;22.10;26.20;;;;;;2259651;61;20454;-58
2024/02/04 10:32:42;0.00;0.00;0.62;0.00;0.00;0.62;5.37;3.63;;;22.00;26.10;;;;;;2259298;61;20365;-60
2024/02/04 10:35:26;0.00;0.00;0.62;0.00;0.00;0.62;5.37;4.57;;;22.00;26.10;;;;;;2259621;61;20930;-57
2024/02/04 10:38:11;0.00;0.00;0.62;0.00;0.00;0.62;5.33;3.90;;;22.00;26.10;;;;;;2259846;61;20381;-64
2024/02/04 10:40:59;0.00;0.00;0.62;0.00;0.00;0.62;5.70;4.40;;;22.00;26.20;;;;;;2259627;61;20415;-61
2024/02/04 10:43:45;0.00;0.00;0.62;0.00;0.00;0.62;5.33;4.47;;;22.10;26.20;;;;;;2259450;61;20385;-62
2024/02/04 10:46:33;0.00;0.00;0.62;0.00;0.00;0.62;8.20;5.20;;;22.00;26.10;;;;;;2259629;61;20400;-58
2024/02/04 10:49:19;0.00;0.00;0.62;0.00;0.00;0.62;6.80;5.00;;;22.00;26.10;;;;;;2259865;61;20361;-59
2024/02/04 10:52:07;0.00;0.00;0.62;0.00;0.00;0.62;5.67;4.90;;;22.10;26.20;;;;;;2259907;61;20364;-59